sensor_id;sensor_type;location;lat;lon;timestamp;P1;durP1;ratioP1;P2;durP2;ratioP2
2848;SDS011;59355;52.416;13.412;2023-02-13T00:01:46;44.00;;;25.37;;
2848;SDS011;59355;52.416;13.412;2023-02-13T00:04:11;41.20;;;24.67;;
2848;SDS011;59355;52.416;13.412;2023-02-13T00:06:36;42.93;;;24.57;;
2848;SDS011;59355;52.416;13.412;2023-02-13T00:09:02;38.20;;;22.40;;
2848;SDS011;59355;52.416;13.412;2023-02-13T00:11:27;41.43;;;24.50;;
2848;SDS011;59355;52.416;13.412;2023-02-13T00:13:52;38.30;;;23.00;;
2848;SDS011;59355;52.416;13.412;2023-02-13T00:16:19;35.90;;;23.23;;
2848;SDS011;59355;52.416;13.412;2023-02-13T00:18:44;39.17;;;23.47;;
2848;SDS011;59355;52.416;13.412;2023-02-13T00:21:10;31.27;;;21.50;;
2848;SDS011;59355;52.416;13.412;2023-02-13T00:23:37;40.50;;;21.20;;
2848;SDS011;59355;52.416;13.412;2023-02-13T00:26:12;37.63;;;22.70;;
2848;SDS011;59355;52.416;13.412;2023-02-13T00:28:39;40.10;;;22.70;;
2848;SDS011;59355;52.416;13.412;2023-02-13T00:31:06;33.80;;;21.17;;
2848;SDS011;59355;52.416;13.412;2023-02-13T00:33:33;30.70;;;17.83;;
2848;SDS011;59355;52.416;13.412;2023-02-13T00:36:02;23.90;;;14.90;;
2848;SDS011;59355;52.416;13.412;2023-02-13T00:38:32;23.10;;;15.77;;
2848;SDS011;59355;52.416;13.412;2023-02-13T00:40:57;25.40;;;14.23;;
2848;SDS011;59355;52.416;13.412;2023-02-13T00:43:22;27.53;;;15.70;;
2848;SDS011;59355;52.416;13.412;2023-02-13T00:45:48;25.73;;;16.63;;
2848;SDS011;59355;52.416;13.412;2023-02-13T00:48:13;21.60;;;14.20;;
2848;SDS011;59355;52.416;13.412;2023-02-13T00:50:38;24.40;;;14.60;;
2848;SDS011;59355;52.416;13.412;2023-02-13T00:53:04;18.00;;;13.80;;
2848;SDS011;59355;52.416;13.412;2023-02-13T00:55:29;18.60;;;11.87;;
2848;SDS011;59355;52.416;13.412;2023-02-13T00:57:54;19.20;;;12.70;;
2848;SDS011;59355;52.416;13.412;2023-02-13T01:00:20;18.30;;;10.60;;
2848;SDS011;59355;52.416;13.412;2023-02-13T01:02:45;15.80;;;10.60;;
2848;SDS011;59355;52.416;13.412;2023-02-13T01:05:11;12.87;;;8.60;;
2848;SDS011;59355;52.416;13.412;2023-02-13T01:07:37;13.67;;;9.00;;
2848;SDS011;59355;52.416;13.412;2023-02-13T01:10:02;11.83;;;7.60;;
2848;SDS011;59355;52.416;13.412;2023-02-13T01:12:27;15.33;;;8.70;;
2848;SDS011;59355;52.416;13.412;2023-02-13T01:14:53;8.47;;;6.10;;
2848;SDS011;59355;52.416;13.412;2023-02-13T01:17:18;9.90;;;6.47;;
2848;SDS011;59355;52.416;13.412;2023-02-13T01:19:43;11.23;;;6.33;;
2848;SDS011;59355;52.416;13.412;2023-02-13T01:22:09;10.50;;;7.10;;
2848;SDS011;59355;52.416;13.412;2023-02-13T01:24:34;7.97;;;5.93;;
2848;SDS011;59355;52.416;13.412;2023-02-13T01:26:59;8.77;;;5.70;;
2848;SDS011;59355;52.416;13.412;2023-02-13T01:29:26;11.70;;;5.83;;
2848;SDS011;59355;52.416;13.412;2023-02-13T01:31:52;10.10;;;5.47;;
2848;SDS011;59355;52.416;13.412;2023-02-13T01:34:17;8.20;;;5.47;;
2848;SDS011;59355;52.416;13.412;2023-02-13T01:36:43;6.37;;;4.53;;
2848;SDS011;59355;52.416;13.412;2023-02-13T01:39:09;7.20;;;4.00;;
2848;SDS011;59355;52.416;13.412;2023-02-13T01:41:35;6.53;;;4.03;;
2848;SDS011;59355;52.416;13.412;2023-02-13T01:44:01;7.83;;;4.73;;
2848;SDS011;59355;52.416;13.412;2023-02-13T01:46:30;4.20;;;3.43;;
2848;SDS011;59355;52.416;13.412;2023-02-13T01:48:59;6.30;;;4.10;;
2848;SDS011;59355;52.416;13.412;2023-02-13T01:51:52;5.73;;;3.90;;
2848;SDS011;59355;52.416;13.412;2023-02-13T01:54:20;6.03;;;3.50;;
2848;SDS011;59355;52.416;13.412;2023-02-13T01:56:54;6.80;;;4.60;;
2848;SDS011;59355;52.416;13.412;2023-02-13T01:59:27;4.73;;;3.43;;
2848;SDS011;59355;52.416;13.412;2023-02-13T02:01:55;4.87;;;4.00;;
2848;SDS011;59355;52.416;13.412;2023-02-13T02:04:25;5.70;;;4.17;;
2848;SDS011;59355;52.416;13.412;2023-02-13T02:06:54;7.87;;;4.20;;
2848;SDS011;59355;52.416;13.412;2023-02-13T02:09:25;6.80;;;4.47;;
2848;SDS011;59355;52.416;13.412;2023-02-13T02:12:05;8.90;;;4.63;;
2848;SDS011;59355;52.416;13.412;2023-02-13T02:14:33;4.80;;;4.30;;
2848;SDS011;59355;52.416;13.412;2023-02-13T02:16:59;7.60;;;5.20;;
2848;SDS011;59355;52.416;13.412;2023-02-13T02:27:19;5.93;;;4.03;;
2848;SDS011;59355;52.416;13.412;2023-02-13T02:33:20;7.10;;;5.27;;
2848;SDS011;59355;52.416;13.412;2023-02-13T02:36:04;7.53;;;5.30;;
2848;SDS011;59355;52.416;13.412;2023-02-13T02:41:28;13.60;;;5.10;;
2848;SDS011;59355;52.416;13.412;2023-02-13T02:46:54;8.80;;;4.90;;
2848;SDS011;59355;52.416;13.412;2023-02-13T02:49:41;7.13;;;5.00;;
2848;SDS011;59355;52.416;13.412;2023-02-13T02:57:54;7.33;;;6.03;;
2848;SDS011;59355;52.416;13.412;2023-02-13T03:00:45;9.40;;;6.60;;
2848;SDS011;59355;52.416;13.412;2023-02-13T03:03:29;9.70;;;7.13;;
2848;SDS011;59355;52.416;13.412;2023-02-13T03:06:28;8.87;;;7.00;;
2848;SDS011;59355;52.416;13.412;2023-02-13T03:08:59;9.50;;;8.37;;
2848;SDS011;59355;52.416;13.412;2023-02-13T03:11:47;11.50;;;8.93;;
2848;SDS011;59355;52.416;13.412;2023-02-13T03:14:32;12.23;;;8.40;;
2848;SDS011;59355;52.416;13.412;2023-02-13T03:16:57;10.30;;;8.57;;
2848;SDS011;59355;52.416;13.412;2023-02-13T03:19:43;10.20;;;7.97;;
2848;SDS011;59355;52.416;13.412;2023-02-13T03:25:45;14.63;;;10.20;;
2848;SDS011;59355;52.416;13.412;2023-02-13T03:31:31;17.53;;;10.57;;
2848;SDS011;59355;52.416;13.412;2023-02-13T03:34:18;13.93;;;11.37;;
2848;SDS011;59355;52.416;13.412;2023-02-13T03:36:46;19.57;;;11.77;;
2848;SDS011;59355;52.416;13.412;2023-02-13T03:39:52;15.40;;;11.40;;
2848;SDS011;59355;52.416;13.412;2023-02-13T03:45:04;16.07;;;10.87;;
2848;SDS011;59355;52.416;13.412;2023-02-13T03:47:57;14.77;;;11.17;;
2848;SDS011;59355;52.416;13.412;2023-02-13T03:50:25;16.20;;;11.60;;
2848;SDS011;59355;52.416;13.412;2023-02-13T03:52:57;17.30;;;12.00;;
2848;SDS011;59355;52.416;13.412;2023-02-13T03:55:30;18.47;;;10.37;;
2848;SDS011;59355;52.416;13.412;2023-02-13T03:58:26;16.10;;;11.67;;
2848;SDS011;59355;52.416;13.412;2023-02-13T04:01:13;16.53;;;11.03;;
2848;SDS011;59355;52.416;13.412;2023-02-13T04:03:50;18.00;;;12.50;;
2848;SDS011;59355;52.416;13.412;2023-02-13T04:06:18;16.73;;;11.73;;
2848;SDS011;59355;52.416;13.412;2023-02-13T04:08:46;15.90;;;12.90;;
2848;SDS011;59355;52.416;13.412;2023-02-13T04:11:13;18.13;;;13.40;;
2848;SDS011;59355;52.416;13.412;2023-02-13T04:13:45;17.40;;;11.40;;
2848;SDS011;59355;52.416;13.412;2023-02-13T04:16:20;17.47;;;12.17;;
2848;SDS011;59355;52.416;13.412;2023-02-13T04:18:57;16.40;;;13.00;;
2848;SDS011;59355;52.416;13.412;2023-02-13T04:21:22;18.20;;;13.77;;
2848;SDS011;59355;52.416;13.412;2023-02-13T04:23:48;14.67;;;11.90;;
2848;SDS011;59355;52.416;13.412;2023-02-13T04:26:15;16.37;;;12.50;;
2848;SDS011;59355;52.416;13.412;2023-02-13T04:28:42;16.13;;;12.70;;
2848;SDS011;59355;52.416;13.412;2023-02-13T04:31:08;18.30;;;12.90;;
2848;SDS011;59355;52.416;13.412;2023-02-13T04:33:33;15.37;;;11.80;;
2848;SDS011;59355;52.416;13.412;2023-02-13T04:35:58;15.90;;;12.70;;
2848;SDS011;59355;52.416;13.412;2023-02-13T04:38:24;13.57;;;11.20;;
2848;SDS011;59355;52.416;13.412;2023-02-13T04:40:49;15.10;;;11.30;;
2848;SDS011;59355;52.416;13.412;2023-02-13T04:43:14;13.87;;;11.23;;
2848;SDS011;59355;52.416;13.412;2023-02-13T04:45:40;15.00;;;11.80;;
2848;SDS011;59355;52.416;13.412;2023-02-13T04:48:05;15.77;;;11.20;;
2848;SDS011;59355;52.416;13.412;2023-02-13T04:50:30;14.77;;;11.50;;
2848;SDS011;59355;52.416;13.412;2023-02-13T04:52:56;16.20;;;12.90;;
2848;SDS011;59355;52.416;13.412;2023-02-13T04:55:25;17.20;;;11.87;;
2848;SDS011;59355;52.416;13.412;2023-02-13T04:57:52;17.83;;;11.67;;
2848;SDS011;59355;52.416;13.412;2023-02-13T05:00:18;13.07;;;10.47;;
2848;SDS011;59355;52.416;13.412;2023-02-13T05:02:47;14.23;;;12.40;;
2848;SDS011;59355;52.416;13.412;2023-02-13T05:05:12;12.30;;;10.57;;
2848;SDS011;59355;52.416;13.412;2023-02-13T05:07:37;16.47;;;12.00;;
2848;SDS011;59355;52.416;13.412;2023-02-13T05:10:03;13.90;;;10.50;;
2848;SDS011;59355;52.416;13.412;2023-02-13T05:12:29;14.90;;;10.97;;
2848;SDS011;59355;52.416;13.412;2023-02-13T05:14:54;11.43;;;10.20;;
2848;SDS011;59355;52.416;13.412;2023-02-13T05:17:19;12.50;;;10.10;;
2848;SDS011;59355;52.416;13.412;2023-02-13T05:19:45;12.30;;;9.07;;
2848;SDS011;59355;52.416;13.412;2023-02-13T05:22:10;11.17;;;9.20;;
2848;SDS011;59355;52.416;13.412;2023-02-13T05:24:53;11.87;;;9.07;;
2848;SDS011;59355;52.416;13.412;2023-02-13T05:27:19;11.87;;;9.03;;
2848;SDS011;59355;52.416;13.412;2023-02-13T05:29:44;11.03;;;8.77;;
2848;SDS011;59355;52.416;13.412;2023-02-13T05:32:09;10.73;;;7.60;;
2848;SDS011;59355;52.416;13.412;2023-02-13T05:34:35;8.70;;;7.70;;
2848;SDS011;59355;52.416;13.412;2023-02-13T05:37:00;10.33;;;8.00;;
2848;SDS011;59355;52.416;13.412;2023-02-13T05:39:25;10.10;;;8.83;;
2848;SDS011;59355;52.416;13.412;2023-02-13T05:41:51;9.87;;;8.63;;
2848;SDS011;59355;52.416;13.412;2023-02-13T05:44:16;11.40;;;9.17;;
2848;SDS011;59355;52.416;13.412;2023-02-13T05:46:41;9.77;;;7.90;;
2848;SDS011;59355;52.416;13.412;2023-02-13T05:49:08;10.20;;;9.10;;
2848;SDS011;59355;52.416;13.412;2023-02-13T05:51:34;11.00;;;8.80;;
2848;SDS011;59355;52.416;13.412;2023-02-13T05:54:00;13.53;;;10.10;;
2848;SDS011;59355;52.416;13.412;2023-02-13T05:56:25;10.67;;;9.20;;
2848;SDS011;59355;52.416;13.412;2023-02-13T05:58:51;12.87;;;10.47;;
2848;SDS011;59355;52.416;13.412;2023-02-13T06:01:17;10.33;;;8.20;;
2848;SDS011;59355;52.416;13.412;2023-02-13T06:03:43;9.60;;;8.60;;
2848;SDS011;59355;52.416;13.412;2023-02-13T06:06:08;10.20;;;8.07;;
2848;SDS011;59355;52.416;13.412;2023-02-13T06:08:34;9.90;;;8.90;;
2848;SDS011;59355;52.416;13.412;2023-02-13T06:10:59;10.77;;;8.20;;
2848;SDS011;59355;52.416;13.412;2023-02-13T06:13:24;9.50;;;8.50;;
2848;SDS011;59355;52.416;13.412;2023-02-13T06:15:50;8.73;;;7.77;;
2848;SDS011;59355;52.416;13.412;2023-02-13T06:18:15;9.10;;;7.93;;
2848;SDS011;59355;52.416;13.412;2023-02-13T06:20:41;10.57;;;8.57;;
2848;SDS011;59355;52.416;13.412;2023-02-13T06:23:06;8.30;;;7.43;;
2848;SDS011;59355;52.416;13.412;2023-02-13T06:25:33;9.93;;;8.30;;
2848;SDS011;59355;52.416;13.412;2023-02-13T06:27:59;10.60;;;8.50;;
2848;SDS011;59355;52.416;13.412;2023-02-13T06:30:24;9.10;;;8.20;;
2848;SDS011;59355;52.416;13.412;2023-02-13T06:32:49;8.93;;;8.00;;
2848;SDS011;59355;52.416;13.412;2023-02-13T06:35:15;12.90;;;9.20;;
2848;SDS011;59355;52.416;13.412;2023-02-13T06:37:40;11.10;;;8.60;;
2848;SDS011;59355;52.416;13.412;2023-02-13T06:40:07;11.07;;;9.47;;
2848;SDS011;59355;52.416;13.412;2023-02-13T06:42:33;10.97;;;8.97;;
2848;SDS011;59355;52.416;13.412;2023-02-13T06:44:59;9.63;;;8.63;;
2848;SDS011;59355;52.416;13.412;2023-02-13T06:47:24;9.30;;;8.40;;
2848;SDS011;59355;52.416;13.412;2023-02-13T06:49:49;10.47;;;8.53;;
2848;SDS011;59355;52.416;13.412;2023-02-13T06:52:15;9.80;;;8.80;;
2848;SDS011;59355;52.416;13.412;2023-02-13T06:54:40;10.90;;;9.37;;
2848;SDS011;59355;52.416;13.412;2023-02-13T06:57:05;11.93;;;10.27;;
2848;SDS011;59355;52.416;13.412;2023-02-13T06:59:31;11.73;;;9.67;;
2848;SDS011;59355;52.416;13.412;2023-02-13T07:01:56;14.30;;;11.10;;
2848;SDS011;59355;52.416;13.412;2023-02-13T07:04:21;14.70;;;11.00;;
2848;SDS011;59355;52.416;13.412;2023-02-13T07:06:46;18.23;;;12.57;;
2848;SDS011;59355;52.416;13.412;2023-02-13T07:09:12;17.93;;;13.47;;
2848;SDS011;59355;52.416;13.412;2023-02-13T07:11:37;17.70;;;13.27;;
2848;SDS011;59355;52.416;13.412;2023-02-13T07:14:03;17.43;;;12.77;;
2848;SDS011;59355;52.416;13.412;2023-02-13T07:16:28;19.17;;;15.03;;
2848;SDS011;59355;52.416;13.412;2023-02-13T07:18:53;27.07;;;20.67;;
2848;SDS011;59355;52.416;13.412;2023-02-13T07:21:19;20.13;;;15.03;;
2848;SDS011;59355;52.416;13.412;2023-02-13T07:23:44;20.43;;;14.77;;
2848;SDS011;59355;52.416;13.412;2023-02-13T07:26:09;21.47;;;14.80;;
2848;SDS011;59355;52.416;13.412;2023-02-13T07:28:35;19.07;;;14.07;;
2848;SDS011;59355;52.416;13.412;2023-02-13T07:31:03;17.80;;;12.10;;
2848;SDS011;59355;52.416;13.412;2023-02-13T07:33:29;23.30;;;14.60;;
2848;SDS011;59355;52.416;13.412;2023-02-13T07:35:55;19.00;;;13.53;;
2848;SDS011;59355;52.416;13.412;2023-02-13T07:38:20;20.23;;;14.30;;
2848;SDS011;59355;52.416;13.412;2023-02-13T07:40:46;17.33;;;13.60;;
2848;SDS011;59355;52.416;13.412;2023-02-13T07:43:11;17.73;;;13.53;;
2848;SDS011;59355;52.416;13.412;2023-02-13T07:45:37;18.70;;;13.70;;
2848;SDS011;59355;52.416;13.412;2023-02-13T07:48:03;18.27;;;14.03;;
2848;SDS011;59355;52.416;13.412;2023-02-13T07:50:28;14.13;;;12.50;;
2848;SDS011;59355;52.416;13.412;2023-02-13T07:52:57;18.80;;;14.30;;
2848;SDS011;59355;52.416;13.412;2023-02-13T07:55:23;20.20;;;13.83;;
2848;SDS011;59355;52.416;13.412;2023-02-13T07:57:49;17.73;;;12.87;;
2848;SDS011;59355;52.416;13.412;2023-02-13T08:00:14;15.40;;;13.00;;
2848;SDS011;59355;52.416;13.412;2023-02-13T08:02:41;15.60;;;12.20;;
2848;SDS011;59355;52.416;13.412;2023-02-13T08:05:06;17.57;;;12.73;;
2848;SDS011;59355;52.416;13.412;2023-02-13T08:07:32;14.93;;;12.43;;
2848;SDS011;59355;52.416;13.412;2023-02-13T08:09:57;16.67;;;12.43;;
2848;SDS011;59355;52.416;13.412;2023-02-13T08:12:41;17.90;;;11.80;;
2848;SDS011;59355;52.416;13.412;2023-02-13T08:15:08;36.53;;;29.00;;
2848;SDS011;59355;52.416;13.412;2023-02-13T08:17:34;18.27;;;13.30;;
2848;SDS011;59355;52.416;13.412;2023-02-13T08:20:00;17.33;;;13.50;;
2848;SDS011;59355;52.416;13.412;2023-02-13T08:22:25;17.90;;;14.10;;
2848;SDS011;59355;52.416;13.412;2023-02-13T08:24:50;15.97;;;11.83;;
2848;SDS011;59355;52.416;13.412;2023-02-13T08:27:16;18.30;;;13.60;;
2848;SDS011;59355;52.416;13.412;2023-02-13T08:29:41;16.70;;;13.37;;
2848;SDS011;59355;52.416;13.412;2023-02-13T08:32:06;15.00;;;12.17;;
2848;SDS011;59355;52.416;13.412;2023-02-13T08:34:32;15.70;;;12.63;;
2848;SDS011;59355;52.416;13.412;2023-02-13T08:36:57;18.97;;;13.63;;
2848;SDS011;59355;52.416;13.412;2023-02-13T08:39:22;16.67;;;12.70;;
2848;SDS011;59355;52.416;13.412;2023-02-13T08:41:48;14.13;;;11.37;;
2848;SDS011;59355;52.416;13.412;2023-02-13T08:44:13;13.47;;;11.13;;
2848;SDS011;59355;52.416;13.412;2023-02-13T08:46:38;14.90;;;11.70;;
2848;SDS011;59355;52.416;13.412;2023-02-13T08:49:03;13.60;;;10.40;;
2848;SDS011;59355;52.416;13.412;2023-02-13T08:51:29;21.37;;;12.60;;
2848;SDS011;59355;52.416;13.412;2023-02-13T08:53:54;14.40;;;12.60;;
2848;SDS011;59355;52.416;13.412;2023-02-13T08:56:19;14.03;;;10.90;;
2848;SDS011;59355;52.416;13.412;2023-02-13T08:58:47;17.27;;;13.27;;
2848;SDS011;59355;52.416;13.412;2023-02-13T09:01:13;15.50;;;11.50;;
2848;SDS011;59355;52.416;13.412;2023-02-13T09:03:38;11.57;;;9.87;;
2848;SDS011;59355;52.416;13.412;2023-02-13T09:06:04;14.70;;;11.33;;
2848;SDS011;59355;52.416;13.412;2023-02-13T09:08:29;16.57;;;11.33;;
2848;SDS011;59355;52.416;13.412;2023-02-13T09:10:58;12.57;;;10.30;;
2848;SDS011;59355;52.416;13.412;2023-02-13T09:13:25;16.90;;;12.10;;
2848;SDS011;59355;52.416;13.412;2023-02-13T09:15:51;17.27;;;10.83;;
2848;SDS011;59355;52.416;13.412;2023-02-13T09:18:16;18.83;;;11.10;;
2848;SDS011;59355;52.416;13.412;2023-02-13T09:20:42;14.93;;;11.27;;
2848;SDS011;59355;52.416;13.412;2023-02-13T09:23:07;12.87;;;10.20;;
2848;SDS011;59355;52.416;13.412;2023-02-13T09:25:32;13.27;;;10.90;;
2848;SDS011;59355;52.416;13.412;2023-02-13T09:27:58;14.23;;;11.20;;
2848;SDS011;59355;52.416;13.412;2023-02-13T09:30:23;12.20;;;9.87;;
2848;SDS011;59355;52.416;13.412;2023-02-13T09:32:52;13.83;;;11.23;;
2848;SDS011;59355;52.416;13.412;2023-02-13T09:35:18;14.00;;;10.63;;
2848;SDS011;59355;52.416;13.412;2023-02-13T09:37:44;15.70;;;10.60;;
2848;SDS011;59355;52.416;13.412;2023-02-13T09:40:17;12.67;;;10.00;;
2848;SDS011;59355;52.416;13.412;2023-02-13T09:42:45;12.80;;;11.10;;
2848;SDS011;59355;52.416;13.412;2023-02-13T09:45:11;12.27;;;10.20;;
2848;SDS011;59355;52.416;13.412;2023-02-13T09:47:38;15.10;;;11.43;;
2848;SDS011;59355;52.416;13.412;2023-02-13T09:50:16;12.67;;;11.03;;
2848;SDS011;59355;52.416;13.412;2023-02-13T09:52:46;14.40;;;10.97;;
2848;SDS011;59355;52.416;13.412;2023-02-13T09:55:14;15.30;;;12.27;;
2848;SDS011;59355;52.416;13.412;2023-02-13T09:57:46;14.13;;;10.97;;
2848;SDS011;59355;52.416;13.412;2023-02-13T10:00:37;15.10;;;11.77;;
2848;SDS011;59355;52.416;13.412;2023-02-13T10:08:53;16.47;;;12.37;;
2848;SDS011;59355;52.416;13.412;2023-02-13T10:17:05;17.83;;;11.90;;
2848;SDS011;59355;52.416;13.412;2023-02-13T10:19:36;18.27;;;11.60;;
2848;SDS011;59355;52.416;13.412;2023-02-13T10:27:33;14.57;;;10.53;;
2848;SDS011;59355;52.416;13.412;2023-02-13T10:32:58;16.90;;;13.10;;
2848;SDS011;59355;52.416;13.412;2023-02-13T10:38:27;16.73;;;12.47;;
2848;SDS011;59355;52.416;13.412;2023-02-13T10:44:05;20.77;;;10.90;;
2848;SDS011;59355;52.416;13.412;2023-02-13T10:49:27;13.60;;;10.27;;
2848;SDS011;59355;52.416;13.412;2023-02-13T10:52:13;13.83;;;9.93;;
2848;SDS011;59355;52.416;13.412;2023-02-13T11:00:33;13.97;;;9.67;;
2848;SDS011;59355;52.416;13.412;2023-02-13T11:03:01;11.23;;;9.90;;
2848;SDS011;59355;52.416;13.412;2023-02-13T11:05:36;10.10;;;8.80;;
2848;SDS011;59355;52.416;13.412;2023-02-13T11:08:04;14.47;;;10.47;;
2848;SDS011;59355;52.416;13.412;2023-02-13T11:10:57;14.53;;;10.37;;
2848;SDS011;59355;52.416;13.412;2023-02-13T11:13:26;13.93;;;10.67;;
2848;SDS011;59355;52.416;13.412;2023-02-13T11:15:55;14.37;;;10.30;;
2848;SDS011;59355;52.416;13.412;2023-02-13T11:18:22;11.73;;;9.37;;
2848;SDS011;59355;52.416;13.412;2023-02-13T11:20:57;11.47;;;9.73;;
2848;SDS011;59355;52.416;13.412;2023-02-13T11:23:45;15.50;;;9.77;;
2848;SDS011;59355;52.416;13.412;2023-02-13T11:26:14;13.03;;;10.10;;
2848;SDS011;59355;52.416;13.412;2023-02-13T11:31:28;13.63;;;10.83;;
2848;SDS011;59355;52.416;13.412;2023-02-13T11:36:53;15.90;;;9.70;;
2848;SDS011;59355;52.416;13.412;2023-02-13T11:39:31;14.07;;;10.43;;
2848;SDS011;59355;52.416;13.412;2023-02-13T11:41:56;14.13;;;12.40;;
2848;SDS011;59355;52.416;13.412;2023-02-13T11:44:26;14.53;;;11.27;;
2848;SDS011;59355;52.416;13.412;2023-02-13T11:46:56;14.83;;;11.60;;
2848;SDS011;59355;52.416;13.412;2023-02-13T11:49:24;25.90;;;19.73;;
2848;SDS011;59355;52.416;13.412;2023-02-13T11:51:50;16.60;;;11.80;;
2848;SDS011;59355;52.416;13.412;2023-02-13T11:56:50;13.07;;;11.37;;
2848;SDS011;59355;52.416;13.412;2023-02-13T11:59:16;14.67;;;11.90;;
2848;SDS011;59355;52.416;13.412;2023-02-13T12:01:42;16.67;;;12.53;;
2848;SDS011;59355;52.416;13.412;2023-02-13T12:04:16;15.93;;;12.07;;
2848;SDS011;59355;52.416;13.412;2023-02-13T12:06:57;15.70;;;13.67;;
2848;SDS011;59355;52.416;13.412;2023-02-13T12:09:23;15.70;;;12.63;;
2848;SDS011;59355;52.416;13.412;2023-02-13T12:11:52;17.83;;;13.10;;
2848;SDS011;59355;52.416;13.412;2023-02-13T12:14:20;14.53;;;12.20;;
2848;SDS011;59355;52.416;13.412;2023-02-13T12:16:59;14.37;;;11.30;;
2848;SDS011;59355;52.416;13.412;2023-02-13T12:19:30;15.83;;;12.37;;
2848;SDS011;59355;52.416;13.412;2023-02-13T12:22:16;14.90;;;11.87;;
2848;SDS011;59355;52.416;13.412;2023-02-13T12:24:50;15.40;;;12.70;;
2848;SDS011;59355;52.416;13.412;2023-02-13T12:27:36;15.70;;;13.00;;
2848;SDS011;59355;52.416;13.412;2023-02-13T12:33:08;16.60;;;13.73;;
2848;SDS011;59355;52.416;13.412;2023-02-13T12:38:57;20.00;;;15.20;;
2848;SDS011;59355;52.416;13.412;2023-02-13T12:44:23;17.03;;;14.00;;
2848;SDS011;59355;52.416;13.412;2023-02-13T12:49:43;16.30;;;13.80;;
2848;SDS011;59355;52.416;13.412;2023-02-13T12:52:39;16.10;;;13.10;;
2848;SDS011;59355;52.416;13.412;2023-02-13T12:55:14;14.93;;;12.57;;
2848;SDS011;59355;52.416;13.412;2023-02-13T12:58:34;19.10;;;14.07;;
2848;SDS011;59355;52.416;13.412;2023-02-13T13:03:44;19.63;;;13.87;;
2848;SDS011;59355;52.416;13.412;2023-02-13T13:09:09;14.17;;;12.67;;
2848;SDS011;59355;52.416;13.412;2023-02-13T13:23:20;19.00;;;15.10;;
2848;SDS011;59355;52.416;13.412;2023-02-13T13:26:04;17.60;;;14.73;;
2848;SDS011;59355;52.416;13.412;2023-02-13T13:28:39;24.13;;;20.50;;
2848;SDS011;59355;52.416;13.412;2023-02-13T13:31:06;19.10;;;14.40;;
2848;SDS011;59355;52.416;13.412;2023-02-13T13:33:32;18.57;;;14.57;;
2848;SDS011;59355;52.416;13.412;2023-02-13T13:38:36;17.87;;;14.20;;
2848;SDS011;59355;52.416;13.412;2023-02-13T13:41:17;16.47;;;14.40;;
2848;SDS011;59355;52.416;13.412;2023-02-13T13:43:57;20.13;;;14.30;;
2848;SDS011;59355;52.416;13.412;2023-02-13T13:49:40;20.13;;;14.47;;
2848;SDS011;59355;52.416;13.412;2023-02-13T13:52:21;18.93;;;14.83;;
2848;SDS011;59355;52.416;13.412;2023-02-13T13:54:57;17.07;;;13.67;;
2848;SDS011;59355;52.416;13.412;2023-02-13T14:02:51;17.80;;;14.50;;
2848;SDS011;59355;52.416;13.412;2023-02-13T14:16:59;18.30;;;15.47;;
2848;SDS011;59355;52.416;13.412;2023-02-13T14:19:31;19.57;;;15.20;;
2848;SDS011;59355;52.416;13.412;2023-02-13T14:24:51;19.23;;;15.57;;
2848;SDS011;59355;52.416;13.412;2023-02-13T14:27:29;20.17;;;16.00;;
2848;SDS011;59355;52.416;13.412;2023-02-13T14:29:59;17.53;;;14.23;;
2848;SDS011;59355;52.416;13.412;2023-02-13T14:32:35;18.73;;;14.40;;
2848;SDS011;59355;52.416;13.412;2023-02-13T14:35:05;20.43;;;15.03;;
2848;SDS011;59355;52.416;13.412;2023-02-13T14:37:47;17.27;;;14.30;;
2848;SDS011;59355;52.416;13.412;2023-02-13T14:42:42;20.93;;;14.80;;
2848;SDS011;59355;52.416;13.412;2023-02-13T14:45:12;17.93;;;14.70;;
2848;SDS011;59355;52.416;13.412;2023-02-13T14:47:44;17.53;;;15.37;;
2848;SDS011;59355;52.416;13.412;2023-02-13T14:50:17;19.87;;;16.20;;
2848;SDS011;59355;52.416;13.412;2023-02-13T14:52:45;18.50;;;15.03;;
2848;SDS011;59355;52.416;13.412;2023-02-13T14:55:13;19.17;;;14.70;;
2848;SDS011;59355;52.416;13.412;2023-02-13T14:57:49;20.50;;;17.53;;
2848;SDS011;59355;52.416;13.412;2023-02-13T15:00:27;19.43;;;15.30;;
2848;SDS011;59355;52.416;13.412;2023-02-13T15:03:04;18.77;;;15.80;;
2848;SDS011;59355;52.416;13.412;2023-02-13T15:05:37;17.80;;;14.40;;
2848;SDS011;59355;52.416;13.412;2023-02-13T15:08:05;19.73;;;16.07;;
2848;SDS011;59355;52.416;13.412;2023-02-13T15:10:40;20.33;;;15.30;;
2848;SDS011;59355;52.416;13.412;2023-02-13T15:13:21;20.30;;;16.30;;
2848;SDS011;59355;52.416;13.412;2023-02-13T15:16:07;22.50;;;15.40;;
2848;SDS011;59355;52.416;13.412;2023-02-13T15:18:47;21.27;;;15.87;;
2848;SDS011;59355;52.416;13.412;2023-02-13T15:21:17;21.90;;;14.97;;
2848;SDS011;59355;52.416;13.412;2023-02-13T15:23:44;19.50;;;15.27;;
2848;SDS011;59355;52.416;13.412;2023-02-13T15:26:18;24.10;;;16.47;;
2848;SDS011;59355;52.416;13.412;2023-02-13T15:28:56;21.60;;;17.70;;
2848;SDS011;59355;52.416;13.412;2023-02-13T15:31:23;21.53;;;17.67;;
2848;SDS011;59355;52.416;13.412;2023-02-13T15:33:49;21.10;;;15.57;;
2848;SDS011;59355;52.416;13.412;2023-02-13T15:36:15;21.90;;;15.20;;
2848;SDS011;59355;52.416;13.412;2023-02-13T15:38:43;18.17;;;15.40;;
2848;SDS011;59355;52.416;13.412;2023-02-13T15:41:09;20.40;;;15.50;;
2848;SDS011;59355;52.416;13.412;2023-02-13T15:43:37;22.10;;;14.90;;
2848;SDS011;59355;52.416;13.412;2023-02-13T15:46:05;20.70;;;13.60;;
2848;SDS011;59355;52.416;13.412;2023-02-13T15:48:32;20.00;;;14.50;;
2848;SDS011;59355;52.416;13.412;2023-02-13T15:50:59;18.93;;;15.70;;
2848;SDS011;59355;52.416;13.412;2023-02-13T15:53:24;20.57;;;15.43;;
2848;SDS011;59355;52.416;13.412;2023-02-13T15:56:00;17.30;;;13.63;;
2848;SDS011;59355;52.416;13.412;2023-02-13T15:58:28;19.50;;;15.60;;
2848;SDS011;59355;52.416;13.412;2023-02-13T16:00:55;18.70;;;14.97;;
2848;SDS011;59355;52.416;13.412;2023-02-13T16:03:25;22.13;;;16.40;;
2848;SDS011;59355;52.416;13.412;2023-02-13T16:05:50;20.23;;;15.77;;
2848;SDS011;59355;52.416;13.412;2023-02-13T16:08:24;20.03;;;15.13;;
2848;SDS011;59355;52.416;13.412;2023-02-13T16:13:40;23.60;;;17.10;;
2848;SDS011;59355;52.416;13.412;2023-02-13T16:16:28;25.40;;;15.47;;
2848;SDS011;59355;52.416;13.412;2023-02-13T16:18:55;24.10;;;16.77;;
2848;SDS011;59355;52.416;13.412;2023-02-13T16:21:21;19.57;;;16.93;;
2848;SDS011;59355;52.416;13.412;2023-02-13T16:23:48;22.43;;;16.70;;
2848;SDS011;59355;52.416;13.412;2023-02-13T16:26:13;19.10;;;14.87;;
2848;SDS011;59355;52.416;13.412;2023-02-13T16:28:39;19.13;;;16.33;;
2848;SDS011;59355;52.416;13.412;2023-02-13T16:31:05;23.40;;;15.63;;
2848;SDS011;59355;52.416;13.412;2023-02-13T16:33:31;21.10;;;16.90;;
2848;SDS011;59355;52.416;13.412;2023-02-13T16:38:52;21.73;;;15.77;;
2848;SDS011;59355;52.416;13.412;2023-02-13T16:48:43;21.53;;;16.90;;
2848;SDS011;59355;52.416;13.412;2023-02-13T16:51:10;18.80;;;16.50;;
2848;SDS011;59355;52.416;13.412;2023-02-13T16:53:36;20.00;;;16.97;;
2848;SDS011;59355;52.416;13.412;2023-02-13T16:56:06;19.40;;;16.10;;
2848;SDS011;59355;52.416;13.412;2023-02-13T16:58:32;25.47;;;16.70;;
2848;SDS011;59355;52.416;13.412;2023-02-13T17:00:58;19.77;;;15.90;;
2848;SDS011;59355;52.416;13.412;2023-02-13T17:03:25;20.70;;;15.70;;
2848;SDS011;59355;52.416;13.412;2023-02-13T17:05:51;21.50;;;15.80;;